Time;durP1;ratioP1;P1;durP2;ratioP2;P2;SDS_P1;SDS_P2;PMS_P1;PMS_P2;Temp;Humidity;BMP_temperature;BMP_pressure;BME280_temperature;BME280_humidity;BME280_pressure;Samples;Min_cycle;Max_cycle;Signal;HPM_P1;HPM_P2
2022/08/09 00:02:29;;;;;;;6.70;2.40;;;;;;;20.79;50.67;99751.95;237323;1195;138923;-58
2022/08/09 00:07:33;;;;;;;6.70;2.40;;;;;;;20.70;50.59;99752.44;237306;1194;138950;-57
2022/08/09 00:12:47;;;;;;;5.50;2.10;;;;;;;20.60;50.69;99748.73;237312;1194;139630;-58
2022/08/09 00:17:55;;;;;;;10.70;2.50;;;;;;;20.50;50.79;99750.34;237413;1194;139792;-59
2022/08/09 00:23:13;;;;;;;9.10;2.70;;;;;;;20.46;50.95;99753.36;237400;1195;139528;-59
2022/08/09 00:28:37;;;;;;;4.40;2.00;;;;;;;20.45;51.05;99754.52;237265;1195;139512;-57
2022/08/09 00:33:41;;;;;;;8.00;2.10;;;;;;;20.42;50.98;99752.10;237235;1195;139207;-59
2022/08/09 00:38:53;;;;;;;5.30;2.50;;;;;;;20.41;50.93;99753.10;237438;1194;139917;-59
2022/08/09 00:43:56;;;;;;;3.80;1.90;;;;;;;20.40;51.00;99758.61;237396;1195;139303;-57
2022/08/09 00:49:19;;;;;;;9.10;2.30;;;;;;;20.37;50.98;99761.80;237285;1195;140748;-58
2022/08/09 00:54:24;;;;;;;5.60;2.10;;;;;;;20.33;51.01;99757.95;237506;1195;139958;-58
2022/08/09 00:59:42;;;;;;;5.90;2.20;;;;;;;20.26;51.03;99760.79;237449;1195;138863;-58
2022/08/09 01:05:15;;;;;;;7.10;2.10;;;;;;;20.24;51.10;99764.42;237395;1195;139274;-59
2022/08/09 01:10:38;;;;;;;7.70;2.20;;;;;;;20.20;51.10;99769.25;237250;1195;139197;-59
2022/08/09 01:15:44;;;;;;;5.00;2.00;;;;;;;20.22;51.17;99768.20;237464;1195;138833;-60
2022/08/09 01:21:27;;;;;;;5.40;1.90;;;;;;;20.22;51.10;99769.30;237428;1195;139468;-61
2022/08/09 01:26:52;;;;;;;5.30;2.40;;;;;;;20.19;51.17;99769.56;237412;1195;139346;-60
2022/08/09 01:31:58;;;;;;;12.90;2.40;;;;;;;20.15;51.16;99771.41;237340;1196;138930;-60
2022/08/09 01:37:23;;;;;;;5.60;2.30;;;;;;;20.11;51.15;99770.63;237306;1195;139892;-60
2022/08/09 01:42:48;;;;;;;3.60;1.90;;;;;;;20.07;51.15;99770.58;237354;1195;139071;-61
2022/08/09 01:47:55;;;;;;;6.20;2.10;;;;;;;20.01;51.13;99774.52;237491;1195;140300;-61
2022/08/09 01:53:00;;;;;;;5.60;2.00;;;;;;;19.96;51.20;99771.98;237387;1195;139851;-60
2022/08/09 01:58:21;;;;;;;4.70;2.20;;;;;;;19.94;51.34;99776.15;237338;1195;139304;-60
2022/08/09 02:03:28;;;;;;;5.00;1.90;;;;;;;19.94;51.42;99771.04;237287;1195;139072;-59
2022/08/09 02:08:36;;;;;;;4.40;2.00;;;;;;;19.92;51.55;99774.29;237410;1195;138922;-57
2022/08/09 02:14:01;;;;;;;5.00;2.10;;;;;;;19.92;51.51;99774.84;237431;1195;139253;-57
2022/08/09 02:19:09;;;;;;;6.30;2.00;;;;;;;19.94;51.59;99778.63;237453;1195;139334;-56
2022/08/09 02:24:19;;;;;;;7.10;2.10;;;;;;;19.93;51.54;99778.89;237261;1196;139415;-57
2022/08/09 02:29:31;;;;;;;8.50;1.90;;;;;;;19.93;51.51;99778.59;237509;1195;140348;-56
2022/08/09 02:34:36;;;;;;;5.40;2.20;;;;;;;19.92;51.53;99778.13;237507;1195;139345;-54
2022/08/09 02:40:05;;;;;;;4.60;2.20;;;;;;;19.90;51.59;99780.23;237529;1195;139612;-54
2022/08/09 02:45:15;;;;;;;4.00;1.90;;;;;;;19.89;51.62;99779.14;237505;1194;139003;-57
2022/08/09 02:50:37;;;;;;;4.30;1.90;;;;;;;19.85;51.72;99779.40;237284;1195;139899;-59
2022/08/09 02:55:44;;;;;;;6.40;2.10;;;;;;;19.80;51.59;99784.60;237480;1195;140147;-59
2022/08/09 03:01:01;;;;;;;5.40;2.30;;;;;;;19.76;51.64;99787.11;237599;1195;140055;-60
2022/08/09 03:06:13;;;;;;;6.60;1.80;;;;;;;19.72;51.73;99789.36;237545;1195;138996;-58
2022/08/09 03:11:19;;;;;;;5.80;2.00;;;;;;;19.68;51.84;99794.80;236868;1195;140537;-57
2022/08/09 03:16:43;;;;;;;5.90;2.20;;;;;;;19.66;51.91;99796.84;237478;1195;139160;-59
2022/08/09 03:21:50;;;;;;;6.30;1.90;;;;;;;19.61;51.85;99795.73;237575;1195;139811;-55
2022/08/09 03:26:54;;;;;;;5.70;1.90;;;;;;;19.58;52.01;99801.23;237496;1195;139737;-56
2022/08/09 03:31:59;;;;;;;3.70;1.80;;;;;;;19.55;51.99;99795.84;237659;1194;139845;-58
2022/08/09 03:37:02;;;;;;;7.60;2.30;;;;;;;19.54;51.91;99803.06;237325;1195;140088;-60
2022/08/09 03:42:25;;;;;;;6.00;1.90;;;;;;;19.49;51.87;99801.13;237535;1195;140546;-59
2022/08/09 03:47:32;;;;;;;8.30;2.30;;;;;;;19.40;52.06;99797.52;237551;1195;139506;-57
2022/08/09 03:52:43;;;;;;;5.40;2.20;;;;;;;19.35;52.03;99799.57;237503;1195;138723;-57
2022/08/09 03:57:49;;;;;;;7.70;2.20;;;;;;;19.29;52.14;99801.08;237461;1195;138910;-57
2022/08/09 04:03:09;;;;;;;3.90;1.80;;;;;;;19.20;52.30;99804.69;237597;1195;139435;-59
2022/08/09 04:08:21;;;;;;;5.40;2.20;;;;;;;19.10;52.45;99805.52;237418;1195;139735;-59
2022/08/09 04:13:31;;;;;;;3.70;1.80;;;;;;;19.07;52.67;99816.73;236962;1195;139966;-61
2022/08/09 04:18:54;;;;;;;5.50;2.20;;;;;;;19.08;52.70;99813.98;237501;1195;139355;-58
2022/08/09 04:23:58;;;;;;;4.10;2.20;;;;;;;19.12;52.72;99816.11;237583;1195;139269;-59
2022/08/09 04:29:01;;;;;;;10.00;1.90;;;;;;;19.37;53.85;99815.83;237418;1195;140999;-59
2022/08/09 04:34:12;;;;;;;7.50;1.90;;;;;;;19.85;53.93;99813.67;237580;1195;139914;-58
2022/08/09 04:39:20;;;;;;;152.70;137.50;;;;;;;20.18;53.66;99807.31;237651;1195;139835;-57
2022/08/09 04:44:25;;;;;;;23.30;18.20;;;;;;;20.33;52.84;99810.77;237265;1195;139953;-59
2022/08/09 04:49:35;;;;;;;20.10;14.50;;;;;;;20.47;52.82;99814.23;237537;1195;139431;-58
2022/08/09 04:54:59;;;;;;;46.20;36.80;;;;;;;20.73;52.60;99810.59;237377;1195;139489;-57
2022/08/09 05:00:04;;;;;;;24.50;17.40;;;;;;;20.90;52.07;99812.11;237264;1195;139595;-58
2022/08/09 05:05:09;;;;;;;13.20;5.80;;;;;;;20.96;51.65;99816.23;237359;1195;140943;-59
2022/08/09 05:10:13;;;;;;;94.60;68.90;;;;;;;20.98;51.37;99814.27;237329;1195;139750;-60
2022/08/09 05:15:16;;;;;;;32.10;23.60;;;;;;;21.02;51.30;99815.50;237529;1195;141099;-59
2022/08/09 05:20:39;;;;;;;16.50;11.20;;;;;;;21.10;51.24;99823.09;237711;1195;140119;-58
2022/08/09 05:25:42;;;;;;;11.10;5.70;;;;;;;21.17;51.11;99824.98;237433;1195;139937;-59
2022/08/09 05:30:52;;;;;;;5.90;3.10;;;;;;;21.27;51.02;99824.36;237589;1195;139223;-58
2022/08/09 05:35:55;;;;;;;7.60;2.70;;;;;;;21.33;50.91;99822.04;237708;1195;139123;-58
2022/08/09 05:40:58;;;;;;;6.90;2.60;;;;;;;21.33;50.71;99819.96;237459;1195;139038;-57
2022/08/09 05:46:02;;;;;;;7.20;2.40;;;;;;;21.26;50.43;99824.48;237278;1195;139472;-57
2022/08/09 05:51:05;;;;;;;37.80;22.30;;;;;;;21.20;50.42;99834.43;237522;1195;139959;-57
2022/08/09 05:56:28;;;;;;;23.10;4.90;;;;;;;21.13;50.36;99837.21;237610;1195;139939;-56
2022/08/09 06:01:31;;;;;;;17.00;3.40;;;;;;;21.17;50.61;99838.08;237687;1195;138878;-56
2022/08/09 06:06:43;;;;;;;8.50;3.20;;;;;;;21.23;50.65;99835.91;237280;1195;140032;-56
2022/08/09 06:11:51;;;;;;;9.60;3.00;;;;;;;21.26;50.53;99836.17;237590;1194;140627;-56
2022/08/09 06:16:59;;;;;;;12.90;2.00;;;;;;;21.27;50.37;99839.91;237313;1195;139918;-57
2022/08/09 06:22:11;;;;;;;9.10;1.90;;;;;;;21.26;50.19;99842.84;237195;1195;140107;-57
2022/08/09 06:27:17;;;;;;;12.10;2.20;;;;;;;21.23;50.22;99839.54;237631;1195;139065;-57
2022/08/09 06:32:20;;;;;;;5.30;1.90;;;;;;;21.21;50.09;99837.00;237743;1195;139957;-56
2022/08/09 06:37:42;;;;;;;4.30;1.90;;;;;;;21.25;50.26;99834.27;237689;1195;139934;-56
2022/08/09 06:43:05;;;;;;;3.10;1.60;;;;;;;21.32;50.23;99835.45;237564;1194;139071;-56
2022/08/09 06:48:12;;;;;;;7.70;2.00;;;;;;;21.40;50.22;99837.98;237364;1195;139149;-57
2022/08/09 06:53:18;;;;;;;6.60;2.10;;;;;;;21.46;50.02;99837.95;237729;1195;139162;-56
2022/08/09 06:58:21;;;;;;;4.50;1.80;;;;;;;21.53;49.95;99835.25;237350;1195;139555;-57
2022/08/09 07:03:44;;;;;;;6.30;1.90;;;;;;;21.66;50.06;99844.52;237601;1195;139166;-57
2022/08/09 07:08:55;;;;;;;6.40;2.20;;;;;;;21.77;49.95;99844.34;237478;1195;139277;-57
2022/08/09 07:13:58;;;;;;;5.60;1.70;;;;;;;21.86;49.82;99844.63;237829;1195;141733;-57
2022/08/09 07:19:10;;;;;;;4.40;1.60;;;;;;;21.93;49.65;99843.75;237597;1195;139537;-56
2022/08/09 07:24:31;;;;;;;7.00;1.70;;;;;;;22.00;49.71;99843.10;237658;1195;139211;-57
2022/08/09 07:29:42;;;;;;;9.00;1.70;;;;;;;22.10;49.57;99847.36;237624;1195;139177;-57
2022/08/09 07:34:48;;;;;;;13.10;1.60;;;;;;;22.18;49.34;99851.40;237572;1195;139253;-56
2022/08/09 07:39:53;;;;;;;15.90;2.10;;;;;;;22.28;49.19;99852.51;237370;1195;140303;-55
2022/08/09 07:44:57;;;;;;;6.40;1.60;;;;;;;22.35;48.94;99852.52;237804;1195;140523;-55
2022/08/09 07:50:08;;;;;;;6.40;1.20;;;;;;;22.42;48.70;99851.67;237690;1195;139592;-55
2022/08/09 07:55:11;;;;;;;4.20;1.20;;;;;;;22.48;48.50;99859.61;237501;1195;139576;-55
2022/08/09 08:00:19;;;;;;;17.10;1.70;;;;;;;22.56;48.33;99862.52;237581;1195;139104;-56
2022/08/09 08:05:38;;;;;;;11.70;1.40;;;;;;;22.68;48.21;99861.84;237389;1195;139116;-56
2022/08/09 08:10:59;;;;;;;4.50;1.10;;;;;;;22.76;47.78;99859.49;237291;1195;138711;-56
2022/08/09 08:16:23;;;;;;;2.40;1.10;;;;;;;22.82;47.52;99860.48;237714;1195;139023;-55
2022/08/09 08:21:34;;;;;;;3.10;1.00;;;;;;;22.93;47.23;99853.61;237577;1195;139410;-54
2022/08/09 08:26:41;;;;;;;3.20;0.90;;;;;;;23.00;46.69;99858.34;237674;1195;139486;-52
2022/08/09 08:31:58;;;;;;;6.50;1.00;;;;;;;23.06;46.56;99856.33;237621;1195;139022;-54
2022/08/09 08:37:07;;;;;;;8.40;1.40;;;;;;;23.15;46.47;99861.00;237676;1194;139235;-55
2022/08/09 08:42:17;;;;;;;2.00;0.90;;;;;;;23.28;46.23;99864.56;237610;1195;140391;-55
2022/08/09 08:47:27;;;;;;;5.50;1.30;;;;;;;23.36;45.82;99864.13;237209;1195;139822;-56
2022/08/09 08:52:32;;;;;;;3.60;0.70;;;;;;;23.43;45.63;99861.54;237357;1195;139313;-57
2022/08/09 08:57:55;;;;;;;4.30;1.20;;;;;;;23.56;45.39;99861.36;237319;1195;139329;-57
2022/08/09 09:03:02;;;;;;;5.20;1.20;;;;;;;23.67;45.09;99859.47;237404;1195;139424;-58
2022/08/09 09:08:19;;;;;;;2.60;0.90;;;;;;;23.69;44.80;99865.06;237522;1195;139786;-58
2022/08/09 09:13:41;;;;;;;5.50;1.30;;;;;;;23.85;44.74;99864.36;237392;1195;140391;-55
2022/08/09 09:19:02;;;;;;;3.80;1.10;;;;;;;23.95;44.44;99866.14;237566;1195;138753;-55
2022/08/09 09:24:26;;;;;;;;;;;;;;;24.13;44.35;99864.89;237367;1195;139898;-55
2022/08/09 09:29:37;;;;;;;3.70;1.00;;;;;;;24.15;44.01;99860.98;237711;1195;126153;-56
2022/08/09 09:35:06;;;;;;;8.80;1.70;;;;;;;24.16;43.81;99864.89;237650;1194;139715;-58
2022/08/09 09:40:11;;;;;;;2.70;0.90;;;;;;;24.27;43.78;99866.05;237638;1195;139482;-58
2022/08/09 09:45:14;;;;;;;2.90;1.20;;;;;;;24.23;43.53;99864.16;237566;1195;139807;-56
2022/08/09 09:50:42;;;;;;;5.50;1.10;;;;;;;24.25;43.56;99863.56;237432;1195;139957;-57
2022/08/09 09:55:59;;;;;;;2.30;1.00;;;;;;;24.27;43.46;99856.08;237511;1195;139034;-57
2022/08/09 10:01:19;;;;;;;8.30;1.10;;;;;;;24.35;43.44;99856.83;237533;1195;139184;-57
2022/08/09 10:06:42;;;;;;;58.20;38.10;;;;;;;24.27;43.10;99860.98;237239;1195;139758;-57
2022/08/09 10:11:58;;;;;;;4.90;3.30;;;;;;;24.25;43.18;99858.45;237274;1195;139849;-57
2022/08/09 10:17:21;;;;;;;4.00;1.70;;;;;;;24.20;43.20;99859.75;237313;1195;139705;-57
2022/08/09 10:22:46;;;;;;;4.00;1.40;;;;;;;24.25;43.08;99856.11;237371;1195;139257;-56
2022/08/09 10:27:49;;;;;;;3.20;1.10;;;;;;;24.36;43.17;99851.64;237452;1195;139411;-58
2022/08/09 10:33:00;;;;;;;4.90;1.30;;;;;;;24.76;43.14;99845.80;237376;1195;139949;-58
2022/08/09 10:38:06;;;;;;;3.40;1.10;;;;;;;25.10;42.75;99846.38;237404;1195;139849;-58
2022/08/09 10:43:29;;;;;;;4.20;1.20;;;;;;;25.37;42.54;99839.60;237237;1196;139270;-59
2022/08/09 10:49:35;;;;;;;7.00;1.30;;;;;;;25.71;42.35;99837.11;237330;1195;139290;-57
2022/08/09 10:54:53;;;;;;;6.90;1.30;;;;;;;26.04;42.04;99841.60;237327;1195;139992;-59
2022/08/09 10:59:56;;;;;;;5.10;1.40;;;;;;;26.31;41.57;99832.08;237279;1196;139022;-59
2022/08/09 11:05:15;;;;;;;1.90;1.10;;;;;;;26.47;41.11;99832.73;237365;1195;139834;-59
2022/08/09 11:10:40;;;;;;;2.40;0.90;;;;;;;26.76;40.63;99826.17;237316;1195;139863;-58
2022/08/09 11:16:33;;;;;;;4.40;1.20;;;;;;;27.01;40.47;99815.72;237188;1195;140688;-58
2022/08/09 11:21:55;;;;;;;2.20;1.00;;;;;;;27.24;39.89;99814.27;237436;1195;139458;-59
2022/08/09 11:27:30;;;;;;;3.90;1.50;;;;;;;27.35;39.46;99815.72;237281;1196;139584;-57
2022/08/09 11:33:24;;;;;;;7.50;1.00;;;;;;;27.36;39.17;99816.12;237432;1195;139013;-58
2022/08/09 11:38:33;;;;;;;2.90;1.00;;;;;;;27.46;38.76;99808.67;237575;1194;138985;-59
2022/08/09 11:43:48;;;;;;;3.60;1.00;;;;;;;27.33;38.32;99804.96;237477;1195;139511;-58
2022/08/09 11:48:55;;;;;;;5.60;1.00;;;;;;;27.06;38.18;99802.17;237437;1195;139596;-59
2022/08/09 11:54:19;;;;;;;3.60;1.10;;;;;;;26.76;38.26;99800.23;237397;1195;139379;-58
2022/08/09 11:59:35;;;;;;;3.90;0.90;;;;;;;26.46;38.20;99804.28;237517;1195;139183;-58
2022/08/09 12:04:39;;;;;;;3.40;1.00;;;;;;;26.21;38.07;99808.35;237539;1195;140137;-58
2022/08/09 12:09:44;;;;;;;6.20;1.10;;;;;;;26.46;38.83;99800.69;237521;1195;139431;-58
2022/08/09 12:14:52;;;;;;;1.90;0.80;;;;;;;27.07;38.64;99798.64;237475;1195;138909;-58
2022/08/09 12:20:23;;;;;;;3.50;0.90;;;;;;;27.17;37.94;99803.80;237382;1195;140044;-58
2022/08/09 12:25:28;;;;;;;4.10;1.00;;;;;;;27.10;37.60;99799.88;237396;1195;139018;-58
2022/08/09 12:30:40;;;;;;;2.80;0.80;;;;;;;27.12;37.73;99796.71;237419;1195;139004;-58
2022/08/09 12:35:44;;;;;;;4.50;0.80;;;;;;;27.72;37.79;99790.27;237438;1195;139091;-58
2022/08/09 12:40:50;;;;;;;1.20;0.80;;;;;;;28.16;37.32;99784.91;237361;1195;139006;-59
2022/08/09 12:45:56;;;;;;;4.20;1.00;;;;;;;28.01;36.72;99783.29;237473;1195;139485;-59
2022/08/09 12:51:03;;;;;;;2.80;1.00;;;;;;;27.63;36.50;99784.20;237360;1195;139021;-58
2022/08/09 12:56:15;;;;;;;3.90;1.20;;;;;;;27.26;36.47;99777.89;237357;1195;139457;-58
2022/08/09 13:01:44;;;;;;;7.40;1.10;;;;;;;27.01;36.79;99779.04;237506;1195;140674;-58
2022/08/09 13:06:52;;;;;;;7.30;1.00;;;;;;;26.82;36.84;99776.21;237468;1195;139003;-59
2022/08/09 13:12:02;;;;;;;7.30;1.30;;;;;;;26.70;36.84;99773.02;237578;1195;139475;-58
2022/08/09 13:17:13;;;;;;;5.40;1.00;;;;;;;26.74;37.06;99768.29;237510;1194;139462;-58
2022/08/09 13:22:25;;;;;;;5.00;0.80;;;;;;;26.82;36.86;99761.90;237429;1195;139138;-59
2022/08/09 13:27:47;;;;;;;4.60;0.80;;;;;;;26.73;36.61;99762.05;237451;1195;140149;-58
2022/08/09 13:32:58;;;;;;;2.30;0.80;;;;;;;26.63;36.69;99759.25;237424;1195;139605;-58
2022/08/09 13:38:02;;;;;;;9.50;1.50;;;;;;;26.53;36.66;99762.42;237436;1195;139416;-59
2022/08/09 13:43:19;;;;;;;5.40;1.10;;;;;;;26.44;36.70;99764.23;237459;1195;139045;-60
2022/08/09 13:48:22;;;;;;;3.20;1.10;;;;;;;26.29;36.38;99763.89;237470;1195;138746;-58
2022/08/09 13:53:26;;;;;;;3.10;1.10;;;;;;;26.22;36.70;99761.52;237454;1195;139022;-58
2022/08/09 13:58:46;;;;;;;4.00;0.90;;;;;;;26.28;36.86;99763.11;237348;1195;139136;-58
2022/08/09 14:03:50;;;;;;;6.00;1.40;;;;;;;26.40;37.01;99758.96;237343;1195;139299;-59
2022/08/09 14:09:08;;;;;;;4.80;1.20;;;;;;;26.86;37.12;99759.96;237351;1195;139116;-58
2022/08/09 14:14:11;;;;;;;6.00;1.10;;;;;;;26.81;36.41;99764.67;237396;1195;139088;-58
2022/08/09 14:19:26;;;;;;;27.90;14.10;;;;;;;26.78;36.38;99764.32;237358;1195;139069;-58
2022/08/09 14:24:35;;;;;;;8.30;1.80;;;;;;;27.09;36.16;99758.97;237383;1195;139741;-58
2022/08/09 14:29:48;;;;;;;7.80;1.00;;;;;;;27.34;35.84;99759.27;237308;1196;140881;-59
2022/08/09 14:35:11;;;;;;;12.90;1.70;;;;;;;27.65;35.60;99757.55;237423;1195;139494;-56
2022/08/09 14:40:15;;;;;;;16.20;1.80;;;;;;;27.73;35.10;99761.91;237374;1195;139696;-58
2022/08/09 14:45:18;;;;;;;6.50;1.30;;;;;;;27.35;34.65;99768.52;237430;1195;139517;-58
2022/08/09 14:50:41;;;;;;;3.40;1.00;;;;;;;26.89;34.68;99767.73;237360;1195;140417;-59
2022/08/09 14:55:47;;;;;;;5.30;1.10;;;;;;;26.59;34.97;99765.82;237362;1195;140794;-58
2022/08/09 15:00:52;;;;;;;8.40;1.30;;;;;;;26.42;35.13;99768.40;237436;1194;139232;-58
2022/08/09 15:05:59;;;;;;;3.90;1.30;;;;;;;26.21;35.27;99771.16;237335;1196;139424;-58
2022/08/09 15:11:05;;;;;;;8.70;1.40;;;;;;;26.02;35.45;99765.96;237410;1195;140977;-58
2022/08/09 15:16:09;;;;;;;7.80;1.20;;;;;;;25.86;35.70;99764.90;237351;1195;139174;-59
2022/08/09 15:21:12;;;;;;;8.90;1.30;;;;;;;25.77;35.97;99767.90;237329;1195;139513;-58
2022/08/09 15:26:35;;;;;;;9.90;1.20;;;;;;;25.65;36.07;99764.66;237366;1195;139286;-59
2022/08/09 15:31:47;;;;;;;11.10;1.40;;;;;;;25.54;36.21;99771.40;237330;1195;139543;-58
2022/08/09 15:36:50;;;;;;;9.70;1.60;;;;;;;25.51;36.51;99775.77;237329;1195;138950;-58
2022/08/09 15:41:54;;;;;;;10.20;1.30;;;;;;;25.44;36.32;99778.85;237405;1195;139158;-58
2022/08/09 15:46:57;;;;;;;4.00;1.50;;;;;;;25.39;36.45;99779.39;237347;1195;139979;-58
2022/08/09 15:52:02;;;;;;;5.10;1.50;;;;;;;25.33;36.53;99782.13;237335;1195;139867;-60
2022/08/09 15:57:08;;;;;;;9.00;2.00;;;;;;;25.24;36.65;99775.13;237458;1195;140177;-57
2022/08/09 16:02:11;;;;;;;5.60;1.60;;;;;;;25.22;36.68;99776.79;237369;1195;139433;-58
2022/08/09 16:07:15;;;;;;;5.70;1.50;;;;;;;25.21;36.84;99778.03;237324;1195;139520;-58
2022/08/09 16:12:18;;;;;;;5.00;1.40;;;;;;;25.22;36.99;99773.73;237321;1195;140213;-59
2022/08/09 16:17:21;;;;;;;3.00;1.00;;;;;;;25.23;37.14;99774.30;237355;1195;138563;-57
2022/08/09 16:22:30;;;;;;;6.20;1.90;;;;;;;25.24;37.13;99777.99;237394;1195;139497;-58
2022/08/09 16:27:36;;;;;;;8.40;1.10;;;;;;;25.27;37.07;99778.86;237298;1195;139487;-58
2022/08/09 16:38:04;;;;;;;4.60;1.10;;;;;;;25.23;37.28;99777.38;237332;1194;139731;-58
2022/08/09 16:43:07;;;;;;;9.60;1.50;;;;;;;25.19;37.05;99776.39;237377;1195;139443;-58
2022/08/09 16:48:11;;;;;;;7.00;2.30;;;;;;;25.16;37.17;99778.91;236987;1195;141252;-58
2022/08/09 16:53:34;;;;;;;4.00;1.70;;;;;;;25.09;37.39;99780.39;236991;1195;140607;-58
2022/08/09 16:58:38;;;;;;;2.40;1.30;;;;;;;24.98;37.69;99782.21;236989;1196;139355;-58
2022/08/09 17:03:53;;;;;;;5.80;1.10;;;;;;;24.85;37.60;99785.40;237357;1195;139793;-59
2022/08/09 17:08:56;;;;;;;9.10;4.60;;;;;;;24.80;37.69;99788.12;237328;1195;139500;-58
2022/08/09 17:14:20;;;;;;;2.90;1.30;;;;;;;24.76;37.62;99789.48;237380;1195;139701;-58
2022/08/09 17:19:33;;;;;;;70.30;57.80;;;;;;;24.67;37.63;99792.80;237406;1195;139215;-58
2022/08/09 17:24:48;;;;;;;6.70;3.30;;;;;;;24.66;37.73;99798.55;237202;1194;141552;-58
2022/08/09 17:29:57;;;;;;;4.40;1.80;;;;;;;24.68;37.75;99801.81;237328;1195;139352;-58
2022/08/09 17:35:00;;;;;;;3.40;1.40;;;;;;;24.68;37.67;99805.55;237253;1195;139493;-58
2022/08/09 17:40:14;;;;;;;6.20;1.30;;;;;;;24.67;37.69;99810.66;237365;1194;139283;-58
2022/08/09 17:45:20;;;;;;;6.10;1.40;;;;;;;24.63;37.84;99807.59;237224;1195;139468;-58
2022/08/09 17:50:29;;;;;;;5.20;1.50;;;;;;;24.58;37.96;99812.00;237322;1195;138747;-58
2022/08/09 17:55:39;;;;;;;81.80;70.00;;;;;;;24.52;38.18;99814.74;237023;1196;139467;-58
2022/08/09 18:00:54;;;;;;;12.90;8.40;;;;;;;24.49;38.26;99822.02;237261;1194;139150;-58
2022/08/09 18:05:59;;;;;;;15.90;11.50;;;;;;;24.44;38.46;99830.33;236900;1195;139669;-60
2022/08/09 18:11:03;;;;;;;7.00;4.80;;;;;;;24.38;38.63;99836.23;236461;1195;140420;-58
2022/08/09 18:16:09;;;;;;;272.80;221.80;;;;;;;24.32;38.86;99841.95;236334;1195;141360;-57
2022/08/09 18:21:13;;;;;;;21.80;9.90;;;;;;;24.24;39.07;99849.46;237107;1195;139365;-57
2022/08/09 18:26:25;;;;;;;12.90;5.90;;;;;;;24.18;39.16;99854.75;237387;1195;139733;-58
2022/08/09 18:31:28;;;;;;;7.30;3.40;;;;;;;24.11;39.39;99866.27;236588;1195;139372;-60
2022/08/09 18:36:51;;;;;;;7.30;4.80;;;;;;;24.06;39.52;99870.39;236726;1195;139640;-58
2022/08/09 18:41:55;;;;;;;4.40;2.20;;;;;;;24.02;39.76;99875.02;236865;1195;140124;-58
2022/08/09 18:47:00;;;;;;;183.30;152.80;;;;;;;23.94;39.88;99876.09;236171;1195;139017;-59
2022/08/09 18:52:13;;;;;;;19.10;8.80;;;;;;;23.87;40.06;99882.44;237326;1195;140417;-59
2022/08/09 18:57:20;;;;;;;10.10;4.00;;;;;;;23.79;40.22;99881.64;237429;1195;139754;-59
2022/08/09 19:02:26;;;;;;;20.40;17.20;;;;;;;23.70;40.36;99888.02;237133;1195;139335;-58
2022/08/09 19:07:34;;;;;;;16.70;9.20;;;;;;;23.63;40.55;99889.42;237405;1195;140676;-59
2022/08/09 19:12:37;;;;;;;11.20;4.80;;;;;;;23.57;40.77;99891.85;237208;1195;139206;-59
2022/08/09 19:17:41;;;;;;;17.00;8.30;;;;;;;23.52;40.90;99894.76;237370;1195;139638;-58
2022/08/09 19:22:58;;;;;;;225.60;165.90;;;;;;;23.49;41.09;99898.43;237426;1195;139847;-59
2022/08/09 19:28:02;;;;;;;15.40;8.40;;;;;;;23.45;41.08;99894.36;237506;1195;139440;-58
2022/08/09 19:33:06;;;;;;;12.10;3.70;;;;;;;23.29;41.00;99895.58;237566;1195;139238;-58
2022/08/09 19:38:21;;;;;;;14.40;4.40;;;;;;;23.08;41.10;99897.75;237621;1195;139206;-57
2022/08/09 19:43:24;;;;;;;172.70;144.70;;;;;;;22.94;41.46;99896.80;237417;1195;139537;-56
2022/08/09 19:48:47;;;;;;;12.50;7.20;;;;;;;22.85;41.57;99897.10;237306;1195;139898;-58
2022/08/09 19:54:05;;;;;;;11.10;4.90;;;;;;;22.75;41.88;99902.77;237427;1195;139994;-58
2022/08/09 19:59:08;;;;;;;10.90;4.00;;;;;;;22.73;41.87;99901.42;237339;1195;139363;-58
2022/08/09 20:04:31;;;;;;;9.80;3.10;;;;;;;22.63;41.99;99899.48;237250;1195;140425;-57
2022/08/09 20:09:42;;;;;;;9.20;3.30;;;;;;;22.51;42.13;99898.67;237396;1195;139170;-58
2022/08/09 20:14:47;;;;;;;7.80;3.50;;;;;;;22.39;42.36;99902.02;237250;1195;139856;-57
2022/08/09 20:19:54;;;;;;;8.90;3.00;;;;;;;22.26;42.58;99905.80;237276;1196;139197;-58
2022/08/09 20:24:57;;;;;;;5.50;2.90;;;;;;;22.12;42.73;99907.89;237419;1195;139255;-58
2022/08/09 20:30:03;;;;;;;5.80;2.70;;;;;;;22.01;43.09;99910.17;237384;1195;139212;-58
2022/08/09 20:35:06;;;;;;;8.90;3.10;;;;;;;21.93;43.40;99907.71;237250;1195;139179;-57
2022/08/09 20:40:13;;;;;;;9.10;3.20;;;;;;;21.85;43.47;99911.54;237388;1195;139368;-57
2022/08/09 20:45:28;;;;;;;7.60;3.10;;;;;;;21.76;43.73;99921.79;237104;1196;139564;-57
2022/08/09 20:50:51;;;;;;;4.80;3.10;;;;;;;21.76;43.93;99927.77;237210;1195;140368;-58
2022/08/09 20:56:01;;;;;;;8.70;3.00;;;;;;;21.73;43.98;99925.27;237257;1195;139107;-58
2022/08/09 21:01:07;;;;;;;9.70;3.20;;;;;;;21.65;44.14;99925.69;237179;1195;139252;-59
2022/08/09 21:06:30;;;;;;;4.20;2.50;;;;;;;21.59;44.29;99919.95;237109;1195;140211;-59
2022/08/09 21:11:33;;;;;;;8.00;3.40;;;;;;;21.51;44.42;99915.08;237728;1195;139672;-60
2022/08/09 21:16:56;;;;;;;7.20;3.50;;;;;;;21.48;44.68;99918.29;237742;1195;140574;-59
2022/08/09 21:22:01;;;;;;;8.20;3.20;;;;;;;21.45;44.72;99918.54;237383;1195;138800;-60
2022/08/09 21:27:04;;;;;;;6.30;3.20;;;;;;;21.42;44.91;99918.98;237482;1195;139908;-59
2022/08/09 21:32:27;;;;;;;7.80;3.00;;;;;;;21.43;45.05;99923.97;237208;1195;138552;-58
2022/08/09 21:37:37;;;;;;;8.10;3.20;;;;;;;21.35;45.05;99924.54;237471;1195;139861;-58
2022/08/09 21:43:02;;;;;;;5.30;3.10;;;;;;;21.30;45.28;99926.45;237470;1195;139456;-59
2022/08/09 21:48:08;;;;;;;8.00;3.50;;;;;;;21.24;45.31;99922.61;237306;1195;139720;-59
2022/08/09 21:53:13;;;;;;;9.10;3.40;;;;;;;21.17;45.56;99924.31;237595;1195;140443;-58
2022/08/09 21:58:36;;;;;;;9.40;3.20;;;;;;;21.12;45.67;99927.95;237387;1195;140422;-61
2022/08/09 22:03:44;;;;;;;8.50;3.10;;;;;;;21.03;45.80;99924.61;237441;1195;139664;-60
2022/08/09 22:09:03;;;;;;;8.00;3.60;;;;;;;20.97;45.99;99926.52;237406;1195;139456;-60
2022/08/09 22:14:12;;;;;;;7.10;3.00;;;;;;;20.89;46.10;99919.69;237571;1195;139462;-59
2022/08/09 22:19:16;;;;;;;8.80;3.30;;;;;;;20.84;46.26;99922.33;237304;1195;139403;-58
2022/08/09 22:24:39;;;;;;;11.60;3.30;;;;;;;20.79;46.40;99923.68;237395;1195;139887;-59
2022/08/09 22:30:03;;;;;;;9.60;3.50;;;;;;;20.75;46.57;99916.86;237173;1195;138975;-59
2022/08/09 22:35:08;;;;;;;5.80;3.30;;;;;;;20.70;46.51;99910.95;237392;1195;139448;-59
2022/08/09 22:40:31;;;;;;;6.90;3.30;;;;;;;20.65;46.65;99904.25;237346;1195;138982;-59
2022/08/09 22:45:36;;;;;;;8.00;4.70;;;;;;;20.60;46.75;99900.39;237363;1195;139284;-57
2022/08/09 22:50:58;;;;;;;7.00;2.80;;;;;;;20.53;46.81;99908.54;237227;1196;139321;-57
2022/08/09 22:56:02;;;;;;;5.80;3.00;;;;;;;20.44;47.01;99906.95;237317;1195;139973;-57
2022/08/09 23:01:25;;;;;;;6.10;3.00;;;;;;;20.35;47.14;99908.34;237426;1195;139174;-56
2022/08/09 23:08:42;;;;;;;9.00;3.40;;;;;;;20.28;47.24;99910.34;237504;1195;139719;-57
2022/08/09 23:11:52;;;;;;;5.50;2.80;;;;;;;20.26;47.38;99912.36;237306;1195;139247;-58
2022/08/09 23:16:55;;;;;;;10.40;3.10;;;;;;;20.25;47.48;99911.38;237254;1195;139139;-58
2022/08/09 23:21:58;;;;;;;6.00;2.80;;;;;;;20.23;47.56;99914.99;237750;1195;139528;-58
2022/08/09 23:27:01;;;;;;;4.90;3.20;;;;;;;20.18;47.64;99908.35;237609;1195;138927;-56
2022/08/09 23:32:04;;;;;;;5.10;3.30;;;;;;;20.19;47.79;99913.16;237578;1195;139817;-57
2022/08/09 23:37:08;;;;;;;8.90;3.20;;;;;;;20.16;47.81;99916.45;237669;1195;139539;-57
2022/08/09 23:42:10;;;;;;;5.40;3.00;;;;;;;20.12;47.94;99915.05;237547;1195;140358;-58
2022/08/09 23:47:13;;;;;;;10.00;3.20;;;;;;;20.06;48.01;99910.63;237427;1195;139571;-58
2022/08/09 23:52:16;;;;;;;8.50;3.00;;;;;;;20.01;48.10;99911.14;237452;1195;139235;-59